Time;durP1;ratioP1;P1;durP2;ratioP2;P2;SDS_P1;SDS_P2;PMS_P1;PMS_P2;Temp;Humidity;BMP_temperature;BMP_pressure;BME280_temperature;BME280_humidity;BME280_pressure;Samples;Min_cycle;Max_cycle;Signal;HPM_P1;HPM_P2
2022/06/02 00:01:08;;;;;;;2.63;1.50;;;17.20;57.10;;;17.31;63.37;100674.00;5025721;28;20049;-77
2022/06/02 00:03:53;;;;;;;2.25;1.52;;;17.10;57.50;;;17.14;64.42;100676.50;5015063;28;20045;-74
2022/06/02 00:06:39;;;;;;;2.47;1.70;;;17.10;57.60;;;17.20;63.88;100683.34;5033159;28;20053;-77
2022/06/02 00:09:47;;;;;;;6.60;1.98;;;17.00;57.90;;;16.93;67.47;100683.63;5022253;28;20132;-75
2022/06/02 00:12:29;;;;;;;2.30;1.50;;;17.00;58.40;;;16.97;68.38;100684.38;5020473;28;20044;-77
2022/06/02 00:15:05;;;;;;;3.15;1.52;;;16.90;59.00;;;16.86;68.49;100687.53;5019763;28;20073;-78
2022/06/02 00:18:10;;;;;;;2.80;1.75;;;16.90;59.20;;;16.76;69.32;100688.84;5018726;28;20042;-77
2022/06/02 00:20:44;;;;;;;3.17;1.95;;;16.80;60.20;;;16.69;71.87;100693.56;5019138;28;20056;-75
2022/06/02 00:24:06;;;;;;;2.22;1.50;;;16.70;60.30;;;16.83;72.59;100693.81;5010122;28;20056;-73
2022/06/02 00:26:54;;;;;;;2.65;1.90;;;16.70;61.50;;;16.79;72.03;100694.06;4981256;28;20137;-77
2022/06/02 00:29:45;;;;;;;3.50;1.58;;;16.70;61.50;;;16.75;73.94;100692.44;5019609;28;20041;-77
2022/06/02 00:32:29;;;;;;;2.33;1.50;;;16.70;62.40;;;16.69;73.18;100688.25;5017093;28;20037;-75
2022/06/02 00:35:31;;;;;;;3.33;2.05;;;16.60;62.80;;;16.62;76.03;100684.16;5010500;28;20057;-76
2022/06/02 00:38:30;;;;;;;3.67;1.50;;;16.60;64.00;;;16.48;79.87;100690.09;5024295;28;20426;-75
2022/06/02 00:41:23;;;;;;;2.08;1.63;;;16.50;64.90;;;16.48;79.41;100693.59;5015729;28;20053;-75
2022/06/02 00:44:08;;;;;;;4.13;1.77;;;16.50;66.10;;;16.32;82.77;100693.44;5019837;28;20107;-78
2022/06/02 00:46:34;;;;;;;2.70;1.70;;;16.40;67.40;;;16.38;81.16;100701.13;5021734;28;20054;-77
2022/06/02 00:49:35;;;;;;;2.72;1.60;;;16.40;68.00;;;16.37;81.80;100704.69;5018079;28;20179;-76
2022/06/02 00:52:11;;;;;;;4.63;1.70;;;16.30;68.70;;;16.36;82.46;100710.94;5015156;28;20045;-76
2022/06/02 00:58:12;;;;;;;3.03;2.08;;;16.30;71.00;;;16.28;83.22;100710.38;5007934;28;20069;-76
2022/06/02 01:00:51;;;;;;;2.92;1.70;;;16.30;71.50;;;16.30;83.23;100714.72;5029252;28;20054;-76
2022/06/02 01:03:23;;;;;;;3.42;1.52;;;16.20;72.20;;;16.29;83.18;100715.66;5000133;28;20057;-77
2022/06/02 01:06:24;;;;;;;6.25;1.90;;;16.20;72.90;;;16.12;87.68;100711.03;5018485;28;20056;-76
2022/06/02 01:09:35;;;;;;;3.97;1.67;;;16.20;74.10;;;16.11;85.66;100717.28;5014723;28;20172;-77
2022/06/02 01:12:28;;;;;;;3.20;1.98;;;16.10;75.40;;;16.06;88.21;100718.38;5000864;28;20041;-77
2022/06/02 01:15:25;;;;;;;3.88;1.65;;;16.30;76.20;;;16.04;87.42;100715.81;5017783;28;20080;-76
2022/06/02 01:18:25;;;;;;;5.85;2.42;;;16.00;76.70;;;15.99;88.82;100720.44;5010728;28;20041;-76
2022/06/02 01:21:27;;;;;;;3.30;1.67;;;16.00;78.10;;;15.85;89.87;100720.97;5018874;28;20041;-75
2022/06/02 01:24:19;;;;;;;3.63;1.63;;;15.90;78.80;;;15.79;91.59;100726.53;5008254;28;20057;-77
2022/06/02 01:27:26;;;;;;;4.03;1.58;;;15.80;79.50;;;15.74;91.97;100729.38;5020815;28;20041;-75
2022/06/02 01:30:16;;;;;;;2.75;1.88;;;15.80;80.50;;;15.53;96.92;100731.06;5016138;28;20041;-76
2022/06/02 01:33:07;;;;;;;4.68;2.38;;;15.70;82.70;;;15.47;97.30;100726.03;5019048;28;20049;-76
2022/06/02 01:36:08;;;;;;;5.05;1.83;;;15.60;83.20;;;15.43;98.19;100730.56;5020051;28;20103;-76
2022/06/02 01:39:01;;;;;;;3.80;1.80;;;15.50;84.60;;;15.31;99.74;100737.22;5020607;28;20419;-75
2022/06/02 01:41:53;;;;;;;3.05;1.63;;;15.40;85.50;;;15.22;100.00;100737.56;5020616;28;20037;-76
2022/06/02 01:44:58;;;;;;;2.03;1.70;;;15.30;87.00;;;15.14;100.00;100737.84;5035889;28;20057;-77
2022/06/02 01:47:41;;;;;;;2.67;1.80;;;15.20;87.70;;;15.02;100.00;100747.97;5021595;28;20049;-77
2022/06/02 01:50:53;;;;;;;3.17;2.00;;;15.10;89.00;;;14.91;100.00;100747.50;5019993;28;20041;-75
2022/06/02 01:54:09;;;;;;;5.45;2.15;;;15.10;90.10;;;14.80;100.00;100752.31;5024835;28;20470;-76
2022/06/02 01:57:04;;;;;;;3.80;1.80;;;15.00;89.80;;;14.80;100.00;100754.97;5022773;28;20045;-76
2022/06/02 02:00:10;;;;;;;7.22;2.08;;;14.90;90.30;;;14.72;100.00;100750.78;5024233;28;20056;-77
2022/06/02 02:02:55;;;;;;;3.50;1.80;;;14.90;90.90;;;14.67;100.00;100743.88;5023574;28;20096;-78
2022/06/02 02:05:42;;;;;;;3.20;1.83;;;14.80;91.00;;;14.60;100.00;100740.63;5022950;28;20046;-75
2022/06/02 02:08:25;;;;;;;3.35;1.90;;;14.70;91.40;;;14.42;100.00;100753.53;5019639;28;20038;-75
2022/06/02 02:11:15;;;;;;;5.72;1.92;;;14.60;91.70;;;14.40;100.00;100760.69;5020957;28;20037;-78
2022/06/02 02:14:21;;;;;;;3.72;2.10;;;14.50;91.70;;;14.20;100.00;100760.50;5023679;28;20045;-77
2022/06/02 02:17:23;;;;;;;4.07;2.08;;;14.50;92.50;;;14.14;100.00;100765.09;5024382;28;20750;-75
2022/06/02 02:20:11;;;;;;;4.10;2.00;;;15.00;93.00;;;14.16;100.00;100762.38;5023467;28;20048;-76
2022/06/02 02:23:01;;;;;;;3.50;2.35;;;14.30;92.70;;;14.06;100.00;100761.81;5030418;28;21390;-76
2022/06/02 02:25:57;;;;;;;3.13;1.90;;;14.20;92.80;;;14.13;100.00;100758.06;5023302;28;20042;-77
2022/06/02 02:28:58;;;;;;;4.38;2.58;;;14.20;92.70;;;14.09;100.00;100758.19;5043270;28;20049;-75
2022/06/02 02:32:22;;;;;;;4.53;2.80;;;14.20;92.80;;;14.04;100.00;100767.13;5017947;28;20049;-75
2022/06/02 02:35:13;;;;;;;4.03;2.17;;;14.10;92.80;;;13.97;100.00;100765.59;5007102;28;20045;-76
2022/06/02 02:37:54;;;;;;;4.03;2.20;;;14.10;92.90;;;13.92;100.00;100769.31;5028117;28;20041;-76
2022/06/02 02:40:40;;;;;;;3.92;2.22;;;14.20;93.00;;;13.78;100.00;100775.91;5026305;28;20042;-76
2022/06/02 02:43:38;;;;;;;3.03;2.10;;;15.30;93.50;;;13.76;100.00;100775.06;5020319;28;20033;-75
2022/06/02 02:46:36;;;;;;;2.40;2.05;;;13.90;93.00;;;13.79;100.00;100777.63;5023116;28;20065;-76
2022/06/02 02:49:27;;;;;;;3.45;2.00;;;13.80;93.20;;;13.63;100.00;100781.66;5026622;28;20046;-77
2022/06/02 02:52:12;;;;;;;4.28;2.30;;;15.00;94.00;;;13.44;100.00;100792.78;5027260;28;20052;-75
2022/06/02 02:55:03;;;;;;;3.75;2.10;;;13.70;93.90;;;13.34;100.00;100781.56;5028452;28;20044;-76
2022/06/02 02:57:38;;;;;;;2.67;1.90;;;13.60;93.60;;;13.44;100.00;100779.56;5020627;28;20052;-76
2022/06/02 03:00:17;;;;;;;4.22;2.22;;;13.60;93.40;;;13.42;100.00;100784.84;5027051;28;20041;-75
2022/06/02 03:03:09;;;;;;;3.85;2.10;;;13.50;93.70;;;13.40;100.00;100785.81;5024444;28;20056;-75
2022/06/02 03:05:47;;;;;;;4.53;2.10;;;13.50;93.70;;;13.24;100.00;100780.09;5023322;28;20405;-75
2022/06/02 03:09:03;;;;;;;3.35;2.30;;;13.40;93.60;;;13.17;100.00;100793.50;5027652;28;20045;-76
2022/06/02 03:12:02;;;;;;;4.88;2.15;;;13.40;93.80;;;12.95;100.00;100794.97;5038808;28;20044;-75
2022/06/02 03:14:48;;;;;;;2.53;2.10;;;13.30;94.10;;;12.85;100.00;100792.59;5020771;28;20041;-76
2022/06/02 03:17:52;;;;;;;2.67;2.05;;;13.20;94.20;;;12.99;100.00;100786.94;5024147;28;20537;-75
2022/06/02 03:21:11;;;;;;;3.92;2.10;;;13.20;95.90;;;12.92;100.00;100782.75;5027176;28;20696;-75
2022/06/02 03:24:20;;;;;;;3.20;2.17;;;13.00;94.60;;;12.84;100.00;100779.44;4960789;28;20178;-75
2022/06/02 03:27:43;;;;;;;2.87;2.03;;;13.00;95.10;;;12.70;100.00;100785.94;5026810;28;20045;-76
2022/06/02 03:30:28;;;;;;;4.05;2.03;;;12.90;94.90;;;12.53;100.00;100796.06;4992571;28;20045;-74
2022/06/02 03:33:13;;;;;;;3.47;2.10;;;13.10;95.60;;;12.55;100.00;100800.41;5018078;28;20447;-75
2022/06/02 03:35:57;;;;;;;5.25;3.13;;;12.80;95.40;;;12.48;100.00;100797.06;5035260;28;20140;-75
2022/06/02 03:38:52;;;;;;;5.57;2.40;;;12.70;95.70;;;12.45;100.00;100796.25;5009728;28;20053;-75
2022/06/02 03:41:32;;;;;;;7.13;4.80;;;15.40;96.60;;;12.37;100.00;100800.88;5018894;28;20049;-75
2022/06/02 03:44:13;;;;;;;3.50;2.78;;;12.60;96.10;;;12.44;100.00;100803.34;5016648;28;20076;-75
2022/06/02 03:47:27;;;;;;;3.72;3.08;;;12.50;95.90;;;12.41;100.00;100805.16;5000599;28;20045;-75
2022/06/02 03:50:19;;;;;;;3.65;2.47;;;12.50;95.80;;;12.31;100.00;100801.91;4975108;28;20311;-74
2022/06/02 03:53:14;;;;;;;5.88;2.58;;;12.50;96.00;;;12.40;100.00;100811.34;5012918;28;20053;-75
2022/06/02 03:56:11;;;;;;;2.90;2.40;;;12.50;96.00;;;12.38;100.00;100808.75;5015324;28;20053;-76
2022/06/02 03:58:54;;;;;;;4.32;2.75;;;12.40;96.00;;;12.41;100.00;100810.44;5019682;28;20072;-77
2022/06/02 04:01:31;;;;;;;4.60;2.80;;;12.50;95.90;;;12.40;100.00;100814.84;5013490;28;20059;-75
2022/06/02 04:04:11;;;;;;;4.28;2.65;;;13.50;96.40;;;12.48;100.00;100817.28;5019821;28;20053;-75
2022/06/02 04:07:06;;;;;;;6.40;2.30;;;12.50;96.00;;;12.51;100.00;100816.38;4997946;28;20092;-76
2022/06/02 04:10:07;;;;;;;4.72;2.50;;;12.50;96.10;;;12.51;100.00;100816.38;5023422;28;20291;-75
2022/06/02 04:16:21;;;;;;;3.63;2.58;;;12.50;96.20;;;12.43;100.00;100817.44;5019331;28;20049;-75
2022/06/02 04:20:34;;;;;;;7.88;2.65;;;12.50;95.90;;;12.48;100.00;100815.53;5022940;28;20045;-77
2022/06/02 04:22:11;;;;;;;3.65;2.63;;;12.50;96.30;;;12.54;100.00;100813.63;5011293;28;20560;-78
2022/06/02 04:25:02;;;;;;;2.92;2.63;;;12.50;96.20;;;12.44;100.00;100820.91;5026118;28;20700;-78
2022/06/02 04:27:56;;;;;;;4.60;2.97;;;12.50;96.40;;;12.39;100.00;100822.81;5025538;28;20065;-78
2022/06/02 04:30:47;;;;;;;3.13;2.30;;;13.00;96.70;;;12.42;100.00;100815.69;5013642;28;20049;-77
2022/06/02 04:33:32;;;;;;;3.97;2.80;;;12.50;96.00;;;12.52;100.00;100821.63;5020032;28;20037;-77
2022/06/02 04:36:30;;;;;;;6.70;2.90;;;12.60;96.60;;;12.59;100.00;100825.81;5023754;28;20053;-77
2022/06/02 04:40:09;;;;;;;6.63;3.10;;;12.60;96.80;;;12.68;100.00;100834.44;5016159;28;20050;-76
2022/06/02 04:43:07;;;;;;;8.43;2.70;;;12.60;96.40;;;12.76;100.00;100829.81;4998373;28;20125;-78
2022/06/02 04:46:34;;;;;;;4.85;2.60;;;12.70;95.80;;;12.84;100.00;100833.13;5033414;28;20045;-77
2022/06/02 04:49:32;;;;;;;3.40;2.70;;;12.70;96.00;;;12.93;100.00;100837.28;5016095;28;20422;-76
2022/06/02 04:52:36;;;;;;;4.95;2.90;;;12.80;96.30;;;13.07;100.00;100833.44;5021662;28;20045;-75
2022/06/02 04:55:32;;;;;;;5.28;2.95;;;12.90;96.30;;;13.16;100.00;100838.44;5023574;28;20049;-77
2022/06/02 04:58:50;;;;;;;6.78;3.45;;;13.00;96.20;;;13.28;100.00;100835.47;5037032;28;20689;-77
2022/06/02 05:02:05;;;;;;;6.13;3.47;;;13.10;96.20;;;13.34;100.00;100831.78;5009204;28;20054;-75
2022/06/02 05:04:51;;;;;;;6.90;3.90;;;13.20;96.20;;;13.43;100.00;100841.22;5017813;28;20059;-76
2022/06/02 05:07:24;;;;;;;4.00;3.42;;;13.30;96.00;;;13.53;100.00;100842.75;5017049;28;20037;-75
2022/06/02 05:10:03;;;;;;;3.53;3.15;;;13.40;95.90;;;13.60;100.00;100835.50;5015996;28;20041;-74
2022/06/02 05:13:14;;;;;;;4.97;3.63;;;13.40;95.50;;;13.71;100.00;100845.75;5017583;28;20055;-75
2022/06/02 05:16:11;;;;;;;4.32;3.45;;;13.50;95.50;;;13.77;100.00;100845.56;4977226;28;20053;-74
2022/06/02 05:18:56;;;;;;;5.30;3.40;;;13.60;95.50;;;13.84;100.00;100852.44;5030547;28;20137;-75
2022/06/02 05:22:19;;;;;;;5.00;3.40;;;13.60;95.50;;;13.92;100.00;100860.13;5016393;28;20060;-75
2022/06/02 05:25:04;;;;;;;6.25;3.75;;;13.70;95.50;;;13.95;100.00;100860.03;4994190;28;20439;-75
2022/06/02 05:27:54;;;;;;;4.75;3.53;;;13.80;95.60;;;14.01;100.00;100867.78;5008719;28;20033;-75
2022/06/02 05:31:04;;;;;;;4.78;3.47;;;14.40;95.50;;;14.11;100.00;100859.56;5016823;28;20045;-75
2022/06/02 05:33:55;;;;;;;5.38;4.00;;;13.90;95.40;;;14.10;100.00;100869.25;5016683;28;20053;-75
2022/06/02 05:37:12;;;;;;;4.47;3.40;;;14.00;95.00;;;14.23;100.00;100864.47;5023302;28;20076;-75
2022/06/02 05:40:13;;;;;;;5.40;3.67;;;14.10;95.30;;;14.30;100.00;100865.16;5001601;28;20049;-75
2022/06/02 05:43:08;;;;;;;7.32;4.53;;;14.10;95.10;;;14.32;100.00;100855.38;5016716;28;20045;-75
2022/06/02 05:46:11;;;;;;;6.00;3.63;;;14.20;94.90;;;14.41;100.00;100870.94;5014118;28;20048;-75
2022/06/02 05:49:04;;;;;;;6.65;3.50;;;14.20;94.90;;;14.46;100.00;100865.50;5001319;28;20045;-75
2022/06/02 05:51:53;;;;;;;7.18;2.83;;;14.20;94.70;;;14.51;100.00;100871.50;5015779;28;20045;-75
2022/06/02 05:55:05;;;;;;;4.75;3.30;;;14.30;94.50;;;14.67;100.00;100858.66;5014298;28;20041;-74
2022/06/02 05:57:55;;;;;;;5.18;3.10;;;14.40;94.70;;;14.70;100.00;100857.69;5017636;28;20140;-75
2022/06/02 06:01:01;;;;;;;7.07;3.08;;;14.50;94.40;;;14.74;100.00;100846.94;5029879;28;20128;-74
2022/06/02 06:04:16;;;;;;;8.15;2.70;;;14.50;94.10;;;14.87;100.00;100854.47;5022138;28;20073;-78
2022/06/02 06:07:00;;;;;;;3.70;2.60;;;15.10;94.00;;;14.91;100.00;100857.91;5020388;28;20061;-78
2022/06/02 06:10:00;;;;;;;4.20;2.50;;;14.60;93.60;;;14.94;100.00;100858.66;5006503;28;20115;-78
2022/06/02 06:13:20;;;;;;;2.70;2.28;;;14.70;93.20;;;15.03;100.00;100855.69;5016193;28;20455;-78
2022/06/02 06:16:16;;;;;;;8.50;2.72;;;14.80;93.30;;;15.21;100.00;100849.81;5002758;28;20129;-77
2022/06/02 06:19:51;;;;;;;4.57;2.30;;;14.90;93.40;;;15.28;100.00;100857.47;4983038;28;20042;-78
2022/06/02 06:23:03;;;;;;;3.55;2.15;;;15.00;93.40;;;15.37;100.00;100871.31;5003032;28;20042;-78
2022/06/02 06:25:41;;;;;;;4.53;2.10;;;15.10;93.20;;;15.45;100.00;100882.50;5043369;28;20042;-78
2022/06/02 06:28:23;;;;;;;2.95;2.03;;;15.20;93.10;;;15.47;97.68;100885.13;5023777;28;20127;-79
2022/06/02 06:31:19;;;;;;;10.27;3.00;;;15.90;92.90;;;15.55;93.81;100883.03;5006685;28;20041;-80
2022/06/02 06:34:12;;;;;;;2.30;2.00;;;16.10;92.40;;;15.65;94.85;100887.09;5025156;28;20564;-80
2022/06/02 06:37:23;;;;;;;4.57;1.70;;;15.40;92.20;;;15.78;93.43;100873.38;5028059;28;20137;-80
2022/06/02 06:40:07;;;;;;;4.10;2.20;;;15.50;92.20;;;15.85;86.64;100874.84;5033898;28;20089;-80
2022/06/02 06:43:06;;;;;;;2.55;1.92;;;15.50;91.40;;;15.93;83.82;100874.59;5025591;28;20053;-80
2022/06/02 06:46:15;;;;;;;2.75;1.60;;;15.60;90.90;;;16.02;83.28;100868.94;5011196;28;20049;-83
2022/06/02 06:48:48;;;;;;;3.13;2.13;;;15.70;90.90;;;16.12;79.98;100878.25;5011260;28;20053;-82
2022/06/02 06:51:34;;;;;;;7.32;3.70;;;15.90;90.60;;;16.61;80.12;100874.56;5001382;28;20049;-81
2022/06/02 06:54:54;;;;;;;3.58;2.38;;;15.20;90.70;;;16.48;74.57;100868.03;5023121;28;20065;-80
2022/06/02 06:57:29;;;;;;;3.22;2.33;;;16.10;89.80;;;16.59;76.86;100866.66;5039023;28;20046;-81
2022/06/02 07:00:24;;;;;;;2.58;2.38;;;16.30;90.10;;;16.58;74.45;100861.41;5023251;28;20411;-81
2022/06/02 07:03:11;;;;;;;4.40;2.42;;;16.30;89.30;;;16.66;75.82;100872.59;5009828;28;20045;-80
2022/06/02 07:05:51;;;;;;;3.95;2.08;;;16.40;89.50;;;16.72;77.83;100864.34;5020142;28;20052;-80
2022/06/02 07:08:36;;;;;;;;;;;16.50;90.00;;;16.89;78.15;100859.28;5026669;28;20060;-79
2022/06/02 07:15:16;;;;;;;5.07;2.25;;;16.60;90.10;;;17.11;73.34;100861.91;5028794;28;20049;-81
2022/06/02 07:18:23;;;;;;;2.58;1.80;;;16.90;89.00;;;17.16;73.30;100865.22;5029414;28;20050;-77
2022/06/02 07:21:15;;;;;;;2.65;1.48;;;16.80;88.60;;;17.18;71.08;100871.31;5031342;28;20045;-77
2022/06/02 07:24:03;;;;;;;3.38;2.17;;;16.90;88.00;;;17.21;69.36;100871.19;5016055;28;20083;-77
2022/06/02 07:27:01;;;;;;;6.00;1.60;;;16.90;87.40;;;17.30;65.43;100867.25;5025152;28;20465;-77
2022/06/02 07:29:46;;;;;;;2.72;1.63;;;17.00;86.30;;;17.32;64.48;100869.84;5020752;28;20132;-77
2022/06/02 07:32:48;;;;;;;2.33;1.77;;;17.00;85.90;;;17.29;62.99;100860.19;5020356;28;20051;-77
2022/06/02 07:35:43;;;;;;;3.90;1.65;;;17.00;84.90;;;17.41;63.12;100864.97;5027031;28;20045;-77
2022/06/02 07:38:38;;;;;;;4.05;1.73;;;17.00;84.90;;;17.46;63.48;100879.88;5025244;28;20041;-77
2022/06/02 07:41:22;;;;;;;3.60;1.60;;;17.10;85.00;;;17.56;63.60;100870.53;5017043;28;20136;-76
2022/06/02 07:44:29;;;;;;;3.50;1.50;;;17.20;85.00;;;17.60;60.67;100880.09;5027531;28;20076;-77
2022/06/02 07:48:02;;;;;;;2.97;1.50;;;17.20;84.50;;;17.73;59.44;100883.09;5025270;28;20048;-76
2022/06/02 07:50:36;;;;;;;2.60;1.67;;;17.30;83.50;;;17.81;58.74;100878.25;5019598;28;20162;-77
2022/06/02 07:53:17;;;;;;;12.55;1.75;;;17.40;83.20;;;17.83;53.87;100876.38;5000248;28;20037;-76
2022/06/02 07:55:57;;;;;;;3.15;1.40;;;17.50;80.90;;;17.94;53.08;100877.69;5042197;28;20561;-77
2022/06/02 07:58:42;;;;;;;3.15;1.48;;;17.50;80.20;;;18.02;52.99;100872.88;5023222;28;20049;-76
2022/06/02 08:01:48;;;;;;;2.15;1.30;;;17.60;79.80;;;18.12;52.87;100870.69;5026786;28;20772;-76
2022/06/02 08:04:53;;;;;;;1.50;1.10;;;17.70;79.50;;;18.15;51.66;100875.84;5003781;28;20088;-76
2022/06/02 08:07:23;;;;;;;1.45;1.10;;;17.80;78.70;;;18.20;50.68;100879.16;5026086;28;20053;-76
2022/06/02 08:10:15;;;;;;;3.28;1.30;;;17.90;78.00;;;18.33;51.01;100881.22;5025703;28;20502;-76
2022/06/02 08:13:29;;;;;;;0.98;0.93;;;17.90;78.00;;;18.41;50.00;100881.69;5023901;28;20056;-77
2022/06/02 08:16:49;;;;;;;3.47;1.25;;;18.00;77.60;;;18.47;50.30;100884.09;5028305;28;20047;-76
2022/06/02 08:19:37;;;;;;;;;;;18.10;77.60;;;18.56;51.37;100878.28;5026526;28;20037;-77
2022/06/02 08:22:10;;;;;;;3.25;1.33;;;18.10;77.70;;;18.64;50.25;100885.91;5013486;28;19972;-76
2022/06/02 08:25:09;;;;;;;1.83;1.50;;;18.20;76.90;;;18.78;50.62;100879.88;5017781;28;20083;-76
2022/06/02 08:28:25;;;;;;;3.75;1.40;;;18.30;77.10;;;18.79;47.55;100872.75;5038667;28;20042;-76
2022/06/02 08:31:13;;;;;;;2.15;1.23;;;18.40;75.00;;;18.91;47.08;100879.28;5041994;28;20055;-76
2022/06/02 08:34:06;;;;;;;2.83;1.20;;;18.50;74.20;;;19.01;46.72;100866.38;5025516;28;20100;-76
2022/06/02 08:37:02;;;;;;;1.85;1.15;;;18.60;73.60;;;19.07;47.71;100866.03;5019200;28;20755;-77
2022/06/02 08:40:14;;;;;;;2.95;1.55;;;18.70;74.20;;;19.08;47.41;100871.31;5027293;28;20049;-76
2022/06/02 08:43:38;;;;;;;2.08;1.42;;;18.70;74.00;;;19.13;45.92;100868.41;5014899;28;20137;-76
2022/06/02 08:46:58;;;;;;;4.47;1.15;;;18.70;72.60;;;19.21;42.46;100862.66;4950638;28;20074;-77
2022/06/02 08:49:48;;;;;;;2.30;1.27;;;18.80;69.80;;;19.26;42.67;100864.13;5003651;28;20050;-76
2022/06/02 08:53:11;;;;;;;1.33;1.10;;;18.90;68.80;;;19.34;44.79;100853.03;5017995;28;20128;-76
2022/06/02 08:55:57;;;;;;;1.98;1.50;;;18.90;70.70;;;19.36;45.76;100858.31;5024891;28;20100;-76
2022/06/02 08:58:46;;;;;;;1.55;1.40;;;19.00;70.80;;;19.46;44.71;100864.88;5022865;28;20419;-76
2022/06/02 09:01:50;;;;;;;2.10;1.55;;;19.00;71.00;;;19.63;44.63;100863.97;5021556;28;20041;-77
2022/06/02 09:05:14;;;;;;;3.05;1.25;;;19.10;70.20;;;19.66;44.76;100871.78;5022245;28;20075;-76
2022/06/02 09:08:39;;;;;;;1.10;1.00;;;19.20;69.50;;;19.84;42.39;100875.28;5039649;28;20431;-77
2022/06/02 09:12:06;;;;;;;1.30;1.20;;;19.30;67.40;;;19.98;42.38;100868.34;5001477;28;20134;-76
2022/06/02 09:15:24;;;;;;;1.88;1.10;;;19.40;67.60;;;19.95;41.71;100866.69;5023061;28;20104;-77
2022/06/02 09:18:00;;;;;;;1.17;1.00;;;19.60;66.40;;;20.02;42.15;100867.22;5016410;28;20049;-76
2022/06/02 09:20:47;;;;;;;4.40;1.88;;;19.60;66.70;;;20.21;42.02;100874.19;5021403;28;20045;-78
2022/06/02 09:24:08;;;;;;;2.92;0.95;;;19.70;66.60;;;20.31;41.83;100870.06;5018432;28;20080;-77
2022/06/02 09:27:10;;;;;;;3.40;1.00;;;19.80;66.40;;;20.43;40.39;100860.47;5004325;28;20528;-77
2022/06/02 09:30:02;;;;;;;1.80;1.30;;;19.90;64.70;;;20.65;40.64;100867.25;5014849;28;20045;-76
2022/06/02 09:36:47;;;;;;;2.13;1.00;;;20.30;65.80;;;20.94;41.58;100860.19;5023410;28;20041;-77
2022/06/02 09:39:45;;;;;;;4.25;1.50;;;20.30;65.70;;;20.92;40.70;100859.44;5023962;28;20042;-77
2022/06/02 09:43:32;;;;;;;2.42;1.20;;;20.40;64.50;;;21.04;40.25;100856.97;5019166;28;20042;-78
2022/06/02 09:46:54;;;;;;;2.83;1.00;;;20.60;64.00;;;21.02;40.28;100853.53;5011424;28;20058;-77
2022/06/02 09:50:01;;;;;;;1.52;0.95;;;21.10;63.80;;;21.15;39.57;100859.88;5016776;28;21279;-77
2022/06/02 09:52:49;;;;;;;2.00;1.10;;;20.70;62.70;;;21.40;38.92;100855.66;5024809;28;20042;-76
2022/06/02 09:56:09;;;;;;;2.25;1.15;;;20.80;62.30;;;21.63;38.96;100853.38;5017476;28;20498;-76
2022/06/02 09:59:10;;;;;;;1.75;1.05;;;21.00;62.10;;;21.76;38.50;100859.69;5008557;28;20046;-78
2022/06/02 10:02:05;;;;;;;1.77;1.10;;;21.20;61.60;;;21.84;39.17;100859.19;5020348;28;20041;-78
2022/06/02 10:05:20;;;;;;;2.95;1.25;;;21.30;61.80;;;21.89;38.33;100851.75;5020377;28;20068;-78
2022/06/02 10:08:19;;;;;;;1.13;1.00;;;21.30;61.40;;;22.03;38.30;100850.00;5026409;28;20033;-77
2022/06/02 10:11:27;;;;;;;2.35;1.10;;;21.50;60.60;;;22.31;37.41;100846.34;5020676;28;20132;-77
2022/06/02 10:14:42;;;;;;;1.50;0.95;;;21.70;59.70;;;22.51;37.06;100845.06;5023624;28;20045;-78
2022/06/02 10:17:51;;;;;;;0.82;0.82;;;21.80;59.00;;;22.63;36.81;100843.38;5015726;28;20056;-78
2022/06/02 10:20:24;;;;;;;2.65;1.00;;;22.00;59.30;;;22.55;36.92;100852.91;5020271;28;20069;-77
2022/06/02 10:23:37;;;;;;;1.70;1.00;;;22.10;58.60;;;22.49;35.77;100844.31;5017511;28;20573;-76
2022/06/02 10:26:51;;;;;;;2.85;0.88;;;22.20;57.20;;;22.25;36.00;100844.09;5032307;28;20391;-77
2022/06/02 10:29:48;;;;;;;3.58;1.23;;;22.10;57.00;;;22.42;36.78;100842.97;4972343;28;20054;-77
2022/06/02 10:32:49;;;;;;;4.70;1.10;;;22.10;57.40;;;22.52;36.14;100841.44;5014302;28;20057;-77
2022/06/02 10:35:56;;;;;;;3.50;1.13;;;22.10;57.40;;;22.73;36.61;100830.19;5018350;28;20403;-77
2022/06/02 10:39:20;;;;;;;2.22;1.00;;;22.20;57.60;;;22.92;35.83;100836.97;5025865;28;20458;-77
2022/06/02 10:42:44;;;;;;;1.85;1.10;;;22.30;56.60;;;22.94;36.32;100843.09;5024030;28;20040;-77
2022/06/02 10:45:36;;;;;;;1.45;0.80;;;22.40;56.90;;;22.86;36.50;100835.56;4991405;28;20082;-76
2022/06/02 10:48:40;;;;;;;3.88;1.23;;;22.50;57.00;;;23.08;36.65;100836.78;5027957;28;20397;-77
2022/06/02 10:51:28;;;;;;;3.05;1.20;;;22.50;57.00;;;23.31;35.72;100834.34;5026617;28;20052;-76
2022/06/02 10:54:50;;;;;;;2.17;1.30;;;22.70;56.70;;;23.46;35.31;100838.63;5023688;28;20123;-75
2022/06/02 10:57:29;;;;;;;1.52;1.10;;;22.90;56.10;;;23.48;35.53;100825.09;5021075;28;20052;-75
2022/06/02 11:00:36;;;;;;;1.15;0.90;;;23.00;56.10;;;23.63;34.78;100824.00;5019586;28;20041;-75
2022/06/02 11:03:27;;;;;;;3.95;1.25;;;23.10;55.30;;;23.72;34.73;100821.59;5022631;28;20034;-75
2022/06/02 11:06:06;;;;;;;2.55;1.30;;;23.20;55.70;;;23.70;34.32;100826.22;5022714;28;20050;-77
2022/06/02 11:09:02;;;;;;;1.70;1.00;;;23.20;54.40;;;23.88;34.54;100816.84;5025839;28;20033;-77
2022/06/02 11:12:13;;;;;;;1.73;1.00;;;23.30;55.20;;;23.94;34.81;100816.38;5025679;28;20092;-77
2022/06/02 11:14:51;;;;;;;3.30;1.55;;;23.50;55.30;;;23.59;33.88;100808.19;5027674;28;20558;-77
2022/06/02 11:17:39;;;;;;;3.58;1.23;;;23.50;53.60;;;23.87;34.92;100808.88;5022025;28;20037;-77
2022/06/02 11:20:53;;;;;;;3.25;1.10;;;23.40;54.60;;;24.32;34.34;100805.59;5041429;28;20034;-77
2022/06/02 11:23:57;;;;;;;2.08;1.25;;;23.60;54.60;;;24.76;34.35;100804.06;5020923;28;20072;-76
2022/06/02 11:26:54;;;;;;;1.95;1.27;;;24.00;54.80;;;24.89;33.38;100795.88;5028465;28;20048;-77
2022/06/02 11:29:55;;;;;;;2.38;1.45;;;24.30;54.00;;;24.76;32.61;100809.44;5016649;28;20049;-77
2022/06/02 11:32:50;;;;;;;1.33;0.98;;;24.40;52.90;;;24.97;32.99;100807.88;5022003;28;21017;-77
2022/06/02 11:35:54;;;;;;;1.35;1.00;;;24.40;53.20;;;25.34;32.23;100803.16;5036733;28;21378;-76
2022/06/02 11:39:18;;;;;;;0.80;0.77;;;24.60;52.70;;;25.71;31.13;100802.03;5024374;28;20045;-76
2022/06/02 11:42:25;;;;;;;1.30;0.82;;;25.00;51.10;;;25.72;31.04;100798.38;5023710;28;20144;-77
2022/06/02 11:45:40;;;;;;;1.80;1.13;;;25.20;51.00;;;25.42;31.06;100790.88;5025058;28;20149;-77
2022/06/02 11:49:05;;;;;;;1.90;0.88;;;25.20;50.40;;;25.96;30.20;100783.00;5003994;28;20054;-78
2022/06/02 11:51:39;;;;;;;1.90;0.90;;;25.30;50.10;;;25.99;29.90;100778.22;4999664;28;20049;-77
2022/06/02 11:54:37;;;;;;;1.67;1.00;;;25.50;49.50;;;26.03;29.63;100773.41;5022102;28;20056;-78
2022/06/02 11:57:16;;;;;;;3.55;1.55;;;25.60;49.10;;;26.07;30.50;100763.22;5037106;28;20068;-79
2022/06/02 12:00:24;;;;;;;2.65;2.25;;;25.70;50.00;;;26.04;30.54;100751.72;5012769;28;20050;-77
2022/06/02 12:03:15;;;;;;;3.20;2.90;;;25.70;50.10;;;26.14;30.18;100762.56;5023427;28;20037;-77
2022/06/02 12:06:44;;;;;;;3.78;1.65;;;25.80;49.40;;;26.42;30.08;100772.91;5002587;28;20053;-77
2022/06/02 12:09:49;;;;;;;1.60;1.10;;;25.90;49.70;;;26.37;30.05;100750.88;5006828;28;20041;-77
2022/06/02 12:12:41;;;;;;;4.40;1.45;;;25.90;48.90;;;26.48;30.74;100754.34;5019740;28;20045;-76
2022/06/02 12:15:15;;;;;;;0.75;0.73;;;26.00;49.70;;;26.90;30.22;100755.34;5022279;28;20045;-76
2022/06/02 12:18:07;;;;;;;1.48;1.05;;;26.20;50.00;;;27.31;29.72;100755.38;5037348;28;20050;-78
2022/06/02 12:21:19;;;;;;;3.05;0.93;;;26.60;49.40;;;27.70;28.83;100760.03;5023567;28;20050;-77
2022/06/02 12:24:27;;;;;;;0.80;0.80;;;26.90;48.60;;;27.75;28.43;100746.97;5024682;28;20069;-78
2022/06/02 12:27:03;;;;;;;1.35;0.85;;;27.10;48.10;;;27.95;29.58;100745.13;5024744;28;20049;-78
2022/06/02 12:30:12;;;;;;;2.50;1.10;;;27.30;49.00;;;28.38;28.37;100739.47;5015978;28;20144;-77